Latest Weather Observations for Luncheon Hill

IDT60801

Issued at 11:35 am EST Friday 19 September 2014 (issued every 30 minutes, with the page automatically refreshed every 10 minutes)

About weather observations | Map of weather stations | Latest weather observations for TAS | Other Formats
Station Details ID: 091259 Name: LUNCHEON HILL (FORESTRY) Lat: -41.15 Lon: 145.15 Height: 344.0 m
Data from the previous 72 hours. | See also: Recent months at Luncheon Hill
Date/Time
EST
Temp
°C
App
Temp
°C
Dew
Point
Rel
Hum
%
Delta-T
°C
Wind Press
QNH
hPa
Press
MSL
hPa
Rain
since 9 am
mm
Dir
 
Spd
km/h
Gust
km/h
Spd
kts
Gust
kts
19/11:30am 10.6 4.2 7.1 79 1.7 SW 30 50 16 27 - - 0.4
19/11:14am 10.3 4.5 7.9 85 1.2 SW 28 52 15 28 - - 0.4
19/11:00am 9.8 4.6 8.7 93 0.5 SSW 26 41 14 22 - - 0.4
19/10:33am 9.2 3.6 8.6 96 0.3 SSW 28 46 15 25 - - 0.4
19/10:30am 9.0 2.9 8.4 96 0.3 SW 30 46 16 25 - - 0.4
19/10:03am 8.6 2.9 8.3 98 0.1 SW 28 46 15 25 - - 0.4
19/10:00am 8.9 3.7 8.8 99 0.0 SW 26 41 14 22 - - 0.4
19/09:33am 8.3 2.6 8.2 99 0.0 SW 28 46 15 25 - - 0.4
19/09:30am 8.0 2.2 7.9 99 0.0 SW 28 44 15 24 - - 0.4
19/09:27am 8.1 2.3 8.0 99 0.0 SW 28 50 15 27 - - 0.4
19/09:00am 7.8 3.5 7.7 99 0.0 SW 20 35 11 19 - - 3.2
19/08:30am 7.5 3.1 7.4 99 0.0 SW 20 32 11 17 - - 3.0
19/08:00am 7.1 1.5 7.0 99 0.0 SW 26 41 14 22 - - 3.0
19/07:30am 7.1 1.8 7.0 99 0.0 SW 24 35 13 19 - - 3.0
19/07:00am 6.9 2.0 6.8 99 0.0 SW 22 35 12 19 - - 3.0
19/06:30am 6.7 2.7 6.6 99 0.0 WSW 17 33 9 18 - - 2.6
19/06:00am 6.7 2.3 6.6 99 0.0 SW 19 30 10 16 - - 2.4
19/05:30am 6.6 1.6 6.3 98 0.1 SW 22 35 12 19 - - 2.4
19/05:12am 6.8 0.7 6.7 99 0.0 SW 28 48 15 26 - - 2.4
19/05:00am 6.8 2.2 6.7 99 0.0 SW 20 33 11 18 - - 2.4
19/04:30am 6.8 1.9 6.7 99 0.0 SW 22 32 12 17 - - 2.4
19/04:00am 6.8 1.5 6.7 99 0.0 SW 24 39 13 21 - - 2.4
19/03:30am 6.8 2.8 6.7 99 0.0 W 17 24 9 13 - - 2.4
19/03:00am 6.8 2.4 6.7 99 0.0 SW 19 32 10 17 - - 2.4
19/02:30am 6.7 2.1 6.6 99 0.0 SW 20 32 11 17 - - 2.4
19/02:00am 6.8 2.4 6.7 99 0.0 SW 19 32 10 17 - - 2.4
19/01:30am 6.8 2.4 6.7 99 0.0 SW 19 28 10 15 - - 2.4
19/01:00am 6.7 2.1 6.6 99 0.0 SW 20 28 11 15 - - 2.2
19/12:30am 6.7 2.7 6.6 99 0.0 SW 17 26 9 14 - - 2.2
19/12:00am 6.7 1.7 6.6 99 0.0 SW 22 32 12 17 - - 1.8
 
Date/Time
EST
Temp
°C
App
Temp
°C
Dew
Point
Rel
Hum
%
Delta-T
°C
Wind Press
QNH
hPa
Press
MSL
hPa
Rain
since 9 am
mm
Dir
 
Spd
km/h
Gust
km/h
Spd
kts
Gust
kts
18/11:30pm 6.6 2.6 6.5 99 0.0 WSW 17 26 9 14 - - 1.8
18/11:00pm 6.5 1.5 6.4 99 0.0 SW 22 33 12 18 - - 1.6
18/10:30pm 6.8 2.2 6.7 99 0.0 SW 20 35 11 19 - - 1.6
18/10:00pm 6.6 1.6 6.5 99 0.0 SSW 22 41 12 22 - - 1.4
18/09:30pm 6.6 0.9 6.5 99 0.0 SSW 26 41 14 22 - - 1.2
18/09:00pm 6.5 0.4 6.4 99 0.0 SSW 28 43 15 23 - - 1.2
18/08:30pm 6.7 0.2 6.4 98 0.1 SSW 30 52 16 28 - - 1.2
18/08:01pm 6.6 0.0 6.2 97 0.2 SSW 30 50 16 27 - - 0.4
18/08:00pm 6.7 0.5 6.3 97 0.2 SW 28 43 15 23 - - 0.4
18/07:30pm 6.7 -0.5 6.1 96 0.3 SW 33 54 18 29 - - 0.4
18/07:13pm 7.0 0.7 5.9 93 0.5 SW 28 56 15 30 - - 0.4
18/07:00pm 7.4 1.8 5.5 88 0.9 SW 24 39 13 21 - - 0.2
18/06:30pm 7.4 1.8 5.2 86 1.0 SW 24 37 13 20 - - 0.2
18/06:00pm 7.5 1.9 5.3 86 1.0 SW 24 44 13 24 - - 0.2
18/05:43pm 7.6 1.1 4.7 82 1.3 SW 28 46 15 25 - - 0.2
18/05:30pm 8.0 1.5 4.9 81 1.4 SW 28 44 15 24 - - 0.2
18/05:07pm 8.5 2.0 4.7 77 1.7 SW 28 50 15 27 - - 0.2
18/05:00pm 8.8 2.7 4.8 76 1.8 SW 26 50 14 27 - - 0.2
18/04:30pm 8.7 2.1 4.3 74 2.0 SW 28 46 15 25 - - 0.2
18/04:00pm 9.6 2.0 2.9 63 2.9 SW 32 50 17 27 - - 0.2
18/03:30pm 9.6 2.9 3.6 66 2.7 SW 28 46 15 25 - - 0.2
18/03:02pm 10.3 3.8 4.5 67 2.6 SW 28 52 15 28 - - 0.2
18/03:00pm 9.9 3.6 3.9 66 2.7 SW 26 52 14 28 - - 0.2
18/02:30pm 8.8 1.1 3.4 69 2.4 SSW 33 56 18 30 - - 0.2
18/02:00pm 8.2 0.0 2.7 68 2.4 SSW 35 54 19 29 - - 0.2
18/01:30pm 8.9 1.3 3.9 71 2.2 SSW 33 52 18 28 - - 0.2
18/01:00pm 9.3 2.0 5.3 76 1.8 SSW 33 56 18 30 - - 0.2
18/12:30pm 8.2 1.2 5.8 85 1.1 SSW 32 50 17 27 - - 0.2
18/12:00pm 9.1 2.6 4.5 73 2.1 SSW 28 52 15 28 - - 0.0
18/11:35am 7.8 1.4 5.3 84 1.1 S 28 48 15 26 - - 0.0
18/11:30am 8.5 0.7 4.7 77 1.7 SSW 35 48 19 26 - - 0.0
18/11:02am 8.8 2.4 5.2 78 1.6 SSW 28 54 15 29 - - 0.0
18/11:00am 8.9 3.3 5.6 80 1.5 SSW 24 54 13 29 - - 0.0
18/10:30am 8.4 2.1 5.7 83 1.2 SSW 28 48 15 26 - - 0.0
18/10:00am 6.9 -0.3 5.2 89 0.8 SSW 32 54 17 29 - - 0.0
18/09:30am 5.9 -2.8 4.1 88 0.8 SSW 39 61 21 33 - - 0.0
18/09:24am 6.9 0.4 4.6 85 1.0 S 28 61 15 33 - - 0.0
18/09:00am 7.3 1.8 5.8 90 0.7 SSW 24 39 13 21 - - 10.0
18/08:30am 6.1 0.9 5.7 97 0.2 SSW 22 33 12 18 - - 10.0
18/08:00am 5.5 0.9 5.4 99 0.0 SSW 19 30 10 16 - - 10.0
18/07:30am 4.9 0.5 4.8 99 0.0 S 17 24 9 13 - - 10.0
18/07:00am 4.4 -1.4 4.3 99 0.0 SSW 24 37 13 20 - - 9.8
18/06:30am 3.9 -2.0 3.8 99 0.0 SSW 24 32 13 17 - - 9.8
18/06:00am 3.9 -2.0 3.8 99 0.0 SSW 24 32 13 17 - - 9.4
18/05:30am 3.4 -1.9 3.0 97 0.2 SSW 20 30 11 16 - - 9.2
18/05:00am 3.4 -2.3 3.0 97 0.2 SSW 22 35 12 19 - - 9.0
18/04:30am 3.0 -3.1 2.7 98 0.1 SSW 24 30 13 16 - - 9.0
18/04:00am 3.1 -3.0 3.0 99 0.0 SSW 24 33 13 18 - - 9.0
18/03:30am 2.9 -2.8 2.8 99 0.0 SSW 22 32 12 17 - - 9.0
18/03:00am 2.9 -2.4 2.8 99 0.0 SSW 20 26 11 14 - - 9.0
18/02:30am 3.0 -2.7 2.9 99 0.0 SSW 22 28 12 15 - - 9.0
18/02:00am 3.1 -2.2 3.0 99 0.0 SSW 20 28 11 15 - - 8.8
18/01:30am 2.7 -2.7 2.6 99 0.0 SSW 20 28 11 15 - - 8.8
18/01:00am 3.4 -2.2 3.3 99 0.0 SSW 22 32 12 17 - - 8.8
18/12:30am 3.0 -2.1 2.9 99 0.0 S 19 24 10 13 - - 8.8
18/12:00am 2.7 -1.0 2.6 99 0.0 W 11 15 6 8 - - 8.8
 
Date/Time
EST
Temp
°C
App
Temp
°C
Dew
Point
Rel
Hum
%
Delta-T
°C
Wind Press
QNH
hPa
Press
MSL
hPa
Rain
since 9 am
mm
Dir
 
Spd
km/h
Gust
km/h
Spd
kts
Gust
kts
17/11:30pm 2.7 -2.5 2.6 99 0.0 SSW 19 26 10 14 - - 8.8
17/11:00pm 2.7 -2.7 2.6 99 0.0 SSW 20 32 11 17 - - 8.8
17/10:30pm 2.8 -2.6 2.7 99 0.0 SSW 20 32 11 17 - - 8.8
17/10:00pm 3.1 -3.0 3.0 99 0.0 SSW 24 32 13 17 - - 8.8
17/09:30pm 3.4 -3.0 3.3 99 0.0 SSW 26 37 14 20 - - 8.6
17/09:00pm 3.4 -1.8 3.3 99 0.0 SW 20 33 11 18 - - 8.6
17/08:30pm 3.4 -3.0 3.1 98 0.1 SW 26 41 14 22 - - 8.6
17/08:00pm 3.6 -3.9 3.3 98 0.1 SW 32 50 17 27 - - 8.6
17/07:30pm 3.4 -4.2 3.0 97 0.2 SW 32 50 17 27 - - 8.4
17/07:00pm 4.0 -2.7 3.6 97 0.2 WSW 28 46 15 25 - - 7.4
17/06:58pm 4.0 -2.7 3.6 97 0.2 WSW 28 46 15 25 - - 7.4
17/06:30pm 3.5 -2.9 3.2 98 0.1 SW 26 39 14 21 - - 7.4
17/06:00pm 3.5 -4.3 3.1 97 0.2 SW 33 57 18 31 - - 7.4
17/05:30pm 4.0 -2.7 3.6 97 0.2 SSW 28 46 15 25 - - 6.4
17/05:00pm 4.2 -3.3 3.2 93 0.4 SSW 32 65 17 35 - - 6.2
17/04:59pm 4.4 -2.7 3.4 93 0.4 SSW 30 65 16 35 - - 6.0
17/04:31pm 5.0 -1.8 3.2 88 0.8 SW 28 46 15 25 - - 5.6
17/04:30pm 5.1 -1.7 3.1 87 0.8 SW 28 39 15 21 - - 5.6
17/04:01pm 5.9 -2.2 3.1 82 1.2 SW 35 59 19 32 - - 5.6
17/04:00pm 6.1 -1.6 3.4 83 1.2 SW 33 48 18 26 - - 5.6
17/03:32pm 6.3 0.0 5.7 96 0.3 SW 28 46 15 25 - - 5.6
17/03:30pm 6.3 -0.3 5.9 97 0.2 SW 30 46 16 25 - - 5.6
17/03:02pm 4.6 -2.4 4.3 98 0.1 SSW 30 56 16 30 - - 5.6
17/03:00pm 5.0 -1.5 4.7 98 0.1 SSW 28 43 15 23 - - 5.6
17/02:30pm 4.0 -5.2 3.7 98 0.1 SSW 41 63 22 34 - - 5.4
17/02:02pm 5.7 -1.0 5.4 98 0.1 SSW 30 50 16 27 - - 4.8
17/02:00pm 5.8 -0.9 5.5 98 0.1 SSW 30 44 16 24 - - 4.8
17/01:30pm 5.0 -2.9 4.4 96 0.3 SSW 35 54 19 29 - - 4.6
17/01:20pm 4.3 -2.5 3.3 93 0.4 SSW 28 61 15 33 - - 4.6
17/01:00pm 5.3 -2.0 4.3 93 0.4 SSW 32 46 17 25 - - 4.2
17/12:30pm 4.9 -0.2 4.2 95 0.3 SW 20 52 11 28 - - 4.2
17/12:00pm 5.6 -1.1 5.5 99 0.0 SSW 30 43 16 23 - - 4.2
17/11:30am 4.1 -1.4 4.0 99 0.0 SSW 22 33 12 18 - - 4.2
17/11:00am 4.2 -2.9 3.8 97 0.2 SW 30 52 16 28 - - 2.8
17/10:30am 6.3 -0.3 6.2 99 0.0 SSW 30 50 16 27 - - 2.4
17/10:00am 5.7 -0.2 5.6 99 0.0 SW 26 41 14 22 - - 2.4
17/09:47am 5.7 -0.6 5.6 99 0.0 SW 28 56 15 30 - - 2.4
17/09:30am 6.5 2.1 6.4 99 0.0 SSW 19 33 10 18 - - 2.4
17/09:00am 6.0 1.8 5.9 99 0.0 SW 17 26 9 14 - - 8.6
17/08:30am 5.9 0.4 5.8 99 0.0 SSW 24 39 13 21 - - 8.6
17/08:00am 5.6 0.8 5.5 99 0.0 SW 20 39 11 21 - - 8.6
17/07:30am 5.7 1.9 5.6 99 0.0 SW 15 24 8 13 - - 7.8
17/07:00am 5.8 1.2 5.7 99 0.0 W 19 41 10 22 - - 6.8
17/06:30am 5.8 2.7 5.7 99 0.0 W 11 13 6 7 - - 6.0
17/06:00am 5.9 2.5 5.8 99 0.0 WSW 13 20 7 11 - - 6.0
17/05:30am 5.7 2.2 5.6 99 0.0 W 13 19 7 10 - - 6.0
17/05:00am 6.3 3.0 6.2 99 0.0 W 13 19 7 10 - - 5.8
17/04:30am 6.3 3.0 6.2 99 0.0 WNW 13 17 7 9 - - 5.8
17/04:00am 6.5 3.2 6.4 99 0.0 W 13 17 7 9 - - 5.8
17/03:30am 6.4 3.1 6.3 99 0.0 W 13 20 7 11 - - 5.8
17/03:00am 6.4 2.7 6.3 99 0.0 W 15 20 8 11 - - 5.8
17/02:30am 6.4 2.7 6.3 99 0.0 WNW 15 19 8 10 - - 5.4
17/02:00am 6.5 2.8 6.4 99 0.0 NNW 15 20 8 11 - - 4.6
17/01:30am 6.7 3.4 6.6 99 0.0 NNW 13 15 7 8 - - 4.0
17/01:00am 6.9 3.3 6.8 99 0.0 NNW 15 19 8 10 - - 4.0
17/12:30am 7.1 3.9 7.0 99 0.0 NNW 13 17 7 9 - - 4.0
17/12:00am 7.1 3.9 7.0 99 0.0 NNW 13 17 7 9 - - 4.0
 
Date/Time
EST
Temp
°C
App
Temp
°C
Dew
Point
Rel
Hum
%
Delta-T
°C
Wind Press
QNH
hPa
Press
MSL
hPa
Rain
since 9 am
mm
Dir
 
Spd
km/h
Gust
km/h
Spd
kts
Gust
kts
16/11:30pm 7.0 4.2 6.9 99 0.0 WNW 11 15 6 8 - - 4.0
16/11:00pm 6.8 3.6 6.7 99 0.0 WNW 13 15 7 8 - - 4.0
16/10:30pm 6.8 4.3 6.7 99 0.0 W 9 13 5 7 - - 4.0
16/10:00pm 7.0 4.6 6.9 99 0.0 W 9 15 5 8 - - 4.0
16/09:30pm 6.8 4.3 6.7 99 0.0 SW 9 15 5 8 - - 4.0
16/09:00pm 7.0 4.6 6.9 99 0.0 SW 9 13 5 7 - - 4.0
16/08:30pm 7.3 4.2 7.2 99 0.0 SW 13 20 7 11 - - 4.0
16/08:00pm 7.4 5.1 7.3 99 0.0 WSW 9 19 5 10 - - 4.0
16/07:30pm 7.7 5.1 7.6 99 0.0 WSW 11 17 6 9 - - 3.8
16/07:00pm 7.9 5.7 7.8 99 0.0 SW 9 15 5 8 - - 3.8
16/06:30pm 7.9 4.9 7.8 99 0.0 SW 13 20 7 11 - - 3.8
16/06:00pm 8.0 5.4 7.7 98 0.1 SSW 11 15 6 8 - - 3.8
16/05:30pm 8.0 5.7 7.6 97 0.2 SSW 9 11 5 6 - - 3.8
16/05:00pm 8.9 6.9 8.5 97 0.2 SSW 9 13 5 7 - - 3.8
16/04:30pm 8.8 6.6 8.0 95 0.4 SW 9 20 5 11 - - 3.8
16/04:00pm 10.1 9.7 8.4 89 0.8 CALM 0 0 0 0 - - 3.6
16/03:30pm 10.5 10.0 9.3 92 0.6 SE 2 9 1 5 - - 3.6
16/03:00pm 9.9 9.0 9.3 96 0.3 SSE 4 7 2 4 - - 3.6
16/02:30pm 9.8 8.6 9.7 99 0.1 SE 6 11 3 6 - - 3.6
16/02:00pm 8.5 6.8 8.4 99 0.0 E 7 17 4 9 - - 3.6
16/01:30pm 7.6 4.2 7.5 99 0.0 E 15 20 8 11 - - 3.6
16/01:00pm 7.7 4.3 7.6 99 0.0 E 15 22 8 12 - - 3.6
16/12:30pm 8.0 5.0 7.9 99 0.0 E 13 20 7 11 - - 3.6
16/12:00pm 7.6 4.2 7.5 99 0.0 E 15 20 8 11 - - 3.4

Other Formats:

Comma delimited format used in spreadsheet applications
http://www.bom.gov.au/fwo/IDT60801/IDT60801.95956.axf

JavaScript Object Notation format (JSON) in row-major order
http://www.bom.gov.au/fwo/IDT60801/IDT60801.95956.json